sensor_id;sensor_type;location;lat;lon;timestamp;pressure;altitude;pressure_sealevel;temperature;humidity
3428;BME280;1727;42.624;23.406;2023-02-17T00:01:59;95785.88;;;4.24;75.52
3428;BME280;1727;42.624;23.406;2023-02-17T00:04:27;95788.69;;;4.19;75.07
3428;BME280;1727;42.624;23.406;2023-02-17T00:06:54;95793.31;;;4.13;76.23
3428;BME280;1727;42.624;23.406;2023-02-17T00:09:21;95783.78;;;4.13;76.61
3428;BME280;1727;42.624;23.406;2023-02-17T00:11:48;95787.34;;;4.11;75.66
3428;BME280;1727;42.624;23.406;2023-02-17T00:14:15;95787.13;;;4.15;75.78
3428;BME280;1727;42.624;23.406;2023-02-17T00:16:43;95788.81;;;4.16;76.20
3428;BME280;1727;42.624;23.406;2023-02-17T00:19:11;95780.19;;;4.16;76.00
3428;BME280;1727;42.624;23.406;2023-02-17T00:21:52;95776.69;;;4.17;75.88
3428;BME280;1727;42.624;23.406;2023-02-17T00:24:19;95784.47;;;4.17;75.65
3428;BME280;1727;42.624;23.406;2023-02-17T00:26:47;95783.00;;;4.11;76.02
3428;BME280;1727;42.624;23.406;2023-02-17T00:29:15;95781.38;;;4.09;75.62
3428;BME280;1727;42.624;23.406;2023-02-17T00:31:42;95775.97;;;4.13;76.67
3428;BME280;1727;42.624;23.406;2023-02-17T00:34:08;95774.06;;;4.17;75.73
3428;BME280;1727;42.624;23.406;2023-02-17T00:36:37;95774.78;;;4.20;74.94
3428;BME280;1727;42.624;23.406;2023-02-17T00:39:04;95762.56;;;4.22;77.10
3428;BME280;1727;42.624;23.406;2023-02-17T00:41:32;95765.16;;;4.22;75.55
3428;BME280;1727;42.624;23.406;2023-02-17T00:43:59;95757.50;;;4.19;75.60
3428;BME280;1727;42.624;23.406;2023-02-17T00:46:26;95761.03;;;4.18;75.31
3428;BME280;1727;42.624;23.406;2023-02-17T00:48:53;95753.50;;;4.12;74.93
3428;BME280;1727;42.624;23.406;2023-02-17T00:51:20;95759.63;;;4.11;75.72
3428;BME280;1727;42.624;23.406;2023-02-17T00:53:48;95754.44;;;4.11;76.01
3428;BME280;1727;42.624;23.406;2023-02-17T00:56:15;95756.19;;;4.11;76.41
3428;BME280;1727;42.624;23.406;2023-02-17T00:58:42;95757.16;;;4.08;76.69
3428;BME280;1727;42.624;23.406;2023-02-17T01:01:11;95760.78;;;4.04;76.89
3428;BME280;1727;42.624;23.406;2023-02-17T01:03:37;95751.31;;;4.03;76.26
3428;BME280;1727;42.624;23.406;2023-02-17T01:06:08;95751.38;;;4.01;76.07
3428;BME280;1727;42.624;23.406;2023-02-17T01:08:35;95756.50;;;4.03;74.82
3428;BME280;1727;42.624;23.406;2023-02-17T01:11:03;95756.03;;;3.95;75.53
3428;BME280;1727;42.624;23.406;2023-02-17T01:13:30;95746.41;;;3.97;74.24
3428;BME280;1727;42.624;23.406;2023-02-17T01:15:57;95749.78;;;3.99;75.03
3428;BME280;1727;42.624;23.406;2023-02-17T01:18:24;95756.03;;;3.95;74.22
3428;BME280;1727;42.624;23.406;2023-02-17T01:20:51;95763.63;;;3.40;76.58
3428;BME280;1727;42.624;23.406;2023-02-17T01:23:18;95755.34;;;3.52;76.11
3428;BME280;1727;42.624;23.406;2023-02-17T01:25:46;95753.78;;;3.48;77.30
3428;BME280;1727;42.624;23.406;2023-02-17T01:28:19;95742.44;;;3.51;77.59
3428;BME280;1727;42.624;23.406;2023-02-17T01:30:46;95747.47;;;3.54;77.54
3428;BME280;1727;42.624;23.406;2023-02-17T01:33:12;95745.59;;;3.57;77.16
3428;BME280;1727;42.624;23.406;2023-02-17T01:35:39;95737.19;;;3.52;76.92
3428;BME280;1727;42.624;23.406;2023-02-17T01:38:06;95735.50;;;3.51;77.76
3428;BME280;1727;42.624;23.406;2023-02-17T01:40:33;95747.03;;;3.44;77.75
3428;BME280;1727;42.624;23.406;2023-02-17T01:43:00;95736.91;;;3.38;77.72
3428;BME280;1727;42.624;23.406;2023-02-17T01:45:40;95738.81;;;3.34;78.29
3428;BME280;1727;42.624;23.406;2023-02-17T01:48:13;95733.25;;;3.23;78.26
3428;BME280;1727;42.624;23.406;2023-02-17T01:50:45;95734.16;;;3.22;78.92
3428;BME280;1727;42.624;23.406;2023-02-17T01:53:16;95733.19;;;3.25;78.31
3428;BME280;1727;42.624;23.406;2023-02-17T01:55:45;95737.25;;;3.30;78.24
3428;BME280;1727;42.624;23.406;2023-02-17T01:58:15;95743.91;;;3.36;78.82
3428;BME280;1727;42.624;23.406;2023-02-17T02:00:44;95750.66;;;3.40;77.72
3428;BME280;1727;42.624;23.406;2023-02-17T02:03:12;95738.59;;;3.39;77.17
3428;BME280;1727;42.624;23.406;2023-02-17T02:05:40;95746.31;;;3.40;78.07
3428;BME280;1727;42.624;23.406;2023-02-17T02:08:08;95741.81;;;3.44;77.83
3428;BME280;1727;42.624;23.406;2023-02-17T02:10:35;95736.69;;;3.24;78.21
3428;BME280;1727;42.624;23.406;2023-02-17T02:13:02;95736.63;;;3.25;78.09
3428;BME280;1727;42.624;23.406;2023-02-17T02:15:34;95749.38;;;3.30;78.55
3428;BME280;1727;42.624;23.406;2023-02-17T02:18:12;95745.88;;;3.31;78.46
3428;BME280;1727;42.624;23.406;2023-02-17T02:21:01;95751.78;;;3.34;78.88
3428;BME280;1727;42.624;23.406;2023-02-17T02:23:59;95731.16;;;3.31;78.51
3428;BME280;1727;42.624;23.406;2023-02-17T02:29:59;95739.19;;;3.25;77.65
3428;BME280;1727;42.624;23.406;2023-02-17T02:32:42;95735.63;;;3.28;77.97
3428;BME280;1727;42.624;23.406;2023-02-17T02:35:17;95728.75;;;3.27;77.67
3428;BME280;1727;42.624;23.406;2023-02-17T02:37:48;95732.25;;;3.26;78.05
3428;BME280;1727;42.624;23.406;2023-02-17T02:40:19;95732.97;;;3.29;77.76
3428;BME280;1727;42.624;23.406;2023-02-17T02:42:49;95738.94;;;3.31;77.90
3428;BME280;1727;42.624;23.406;2023-02-17T02:45:17;95732.84;;;3.32;77.72
3428;BME280;1727;42.624;23.406;2023-02-17T02:47:50;95744.91;;;3.33;77.31
3428;BME280;1727;42.624;23.406;2023-02-17T02:50:19;95737.31;;;3.29;77.22
3428;BME280;1727;42.624;23.406;2023-02-17T02:52:57;95738.81;;;3.34;78.03
3428;BME280;1727;42.624;23.406;2023-02-17T02:55:38;95751.69;;;3.36;77.02
3428;BME280;1727;42.624;23.406;2023-02-17T02:58:15;95737.81;;;3.37;78.06
3428;BME280;1727;42.624;23.406;2023-02-17T03:00:48;95743.84;;;3.37;78.34
3428;BME280;1727;42.624;23.406;2023-02-17T03:03:25;95744.56;;;3.41;78.56
3428;BME280;1727;42.624;23.406;2023-02-17T03:05:57;95744.63;;;3.39;78.07
3428;BME280;1727;42.624;23.406;2023-02-17T03:08:27;95740.41;;;3.37;78.00
3428;BME280;1727;42.624;23.406;2023-02-17T03:10:57;95739.72;;;3.33;77.16
3428;BME280;1727;42.624;23.406;2023-02-17T03:13:24;95740.63;;;3.32;77.65
3428;BME280;1727;42.624;23.406;2023-02-17T03:15:50;95744.13;;;3.31;77.75
3428;BME280;1727;42.624;23.406;2023-02-17T03:18:17;95735.38;;;3.34;77.68
3428;BME280;1727;42.624;23.406;2023-02-17T03:20:50;95739.56;;;3.36;76.96
3428;BME280;1727;42.624;23.406;2023-02-17T03:23:18;95745.75;;;3.34;76.55
3428;BME280;1727;42.624;23.406;2023-02-17T03:25:45;95743.47;;;3.26;78.19
3428;BME280;1727;42.624;23.406;2023-02-17T03:28:12;95732.13;;;3.29;78.07
3428;BME280;1727;42.624;23.406;2023-02-17T03:30:39;95746.84;;;3.28;78.24
3428;BME280;1727;42.624;23.406;2023-02-17T03:33:06;95742.72;;;3.24;78.16
3428;BME280;1727;42.624;23.406;2023-02-17T03:35:33;95751.59;;;3.19;77.62
3428;BME280;1727;42.624;23.406;2023-02-17T03:38:01;95747.28;;;3.18;77.61
3428;BME280;1727;42.624;23.406;2023-02-17T03:40:28;95749.09;;;3.16;77.33
3428;BME280;1727;42.624;23.406;2023-02-17T03:42:55;95746.44;;;3.17;78.20
3428;BME280;1727;42.624;23.406;2023-02-17T03:45:22;95746.34;;;3.20;77.71
3428;BME280;1727;42.624;23.406;2023-02-17T03:47:49;95732.41;;;3.23;78.14
3428;BME280;1727;42.624;23.406;2023-02-17T03:50:16;95731.41;;;3.25;77.61
3428;BME280;1727;42.624;23.406;2023-02-17T03:52:44;95740.81;;;3.28;77.78
3428;BME280;1727;42.624;23.406;2023-02-17T03:55:12;95741.53;;;3.31;79.94
3428;BME280;1727;42.624;23.406;2023-02-17T03:57:39;95735.56;;;3.29;79.05
3428;BME280;1727;42.624;23.406;2023-02-17T04:00:06;95734.47;;;3.35;78.28
3428;BME280;1727;42.624;23.406;2023-02-17T04:02:34;95736.97;;;3.36;77.43
3428;BME280;1727;42.624;23.406;2023-02-17T04:05:01;95732.63;;;3.37;77.88
3428;BME280;1727;42.624;23.406;2023-02-17T04:07:28;95731.72;;;3.38;76.74
3428;BME280;1727;42.624;23.406;2023-02-17T04:09:54;95726.41;;;3.41;77.03
3428;BME280;1727;42.624;23.406;2023-02-17T04:12:22;95733.47;;;3.37;77.55
3428;BME280;1727;42.624;23.406;2023-02-17T04:14:49;95740.41;;;3.37;76.75
3428;BME280;1727;42.624;23.406;2023-02-17T04:17:16;95731.03;;;3.34;77.38
3428;BME280;1727;42.624;23.406;2023-02-17T04:19:43;95733.69;;;3.33;76.96
3428;BME280;1727;42.624;23.406;2023-02-17T04:22:09;95741.47;;;3.33;76.90
3428;BME280;1727;42.624;23.406;2023-02-17T04:24:36;95729.41;;;3.32;76.95
3428;BME280;1727;42.624;23.406;2023-02-17T04:27:04;95746.72;;;3.31;77.19
3428;BME280;1727;42.624;23.406;2023-02-17T04:29:32;95741.59;;;3.30;77.43
3428;BME280;1727;42.624;23.406;2023-02-17T04:31:59;95746.00;;;3.28;77.43
3428;BME280;1727;42.624;23.406;2023-02-17T04:34:26;95737.25;;;3.30;77.22
3428;BME280;1727;42.624;23.406;2023-02-17T04:36:53;95730.44;;;3.28;76.81
3428;BME280;1727;42.624;23.406;2023-02-17T04:39:19;95732.06;;;3.30;76.28
3428;BME280;1727;42.624;23.406;2023-02-17T04:41:46;95735.56;;;3.29;76.41
3428;BME280;1727;42.624;23.406;2023-02-17T04:44:13;95735.50;;;3.31;76.06
3428;BME280;1727;42.624;23.406;2023-02-17T04:46:41;95744.91;;;3.33;76.04
3428;BME280;1727;42.624;23.406;2023-02-17T04:49:08;95740.56;;;3.34;75.77
3428;BME280;1727;42.624;23.406;2023-02-17T04:51:35;95734.59;;;3.32;75.92
3428;BME280;1727;42.624;23.406;2023-02-17T04:54:01;95739.78;;;3.32;76.45
3428;BME280;1727;42.624;23.406;2023-02-17T04:56:28;95752.69;;;3.33;76.11
3428;BME280;1727;42.624;23.406;2023-02-17T04:58:55;95754.84;;;3.24;76.53
3428;BME280;1727;42.624;23.406;2023-02-17T05:01:22;95746.84;;;3.08;77.05
3428;BME280;1727;42.624;23.406;2023-02-17T05:03:50;95754.28;;;2.95;77.45
3428;BME280;1727;42.624;23.406;2023-02-17T05:06:16;95751.06;;;2.90;77.82
3428;BME280;1727;42.624;23.406;2023-02-17T05:08:43;95759.78;;;2.88;78.69
3428;BME280;1727;42.624;23.406;2023-02-17T05:11:12;95766.53;;;2.92;78.92
3428;BME280;1727;42.624;23.406;2023-02-17T05:13:39;95770.88;;;2.91;78.76
3428;BME280;1727;42.624;23.406;2023-02-17T05:16:06;95769.13;;;2.92;78.77
3428;BME280;1727;42.624;23.406;2023-02-17T05:18:33;95769.19;;;2.90;78.35
3428;BME280;1727;42.624;23.406;2023-02-17T05:21:01;95770.63;;;2.97;78.54
3428;BME280;1727;42.624;23.406;2023-02-17T05:23:27;95765.44;;;2.97;78.82
3428;BME280;1727;42.624;23.406;2023-02-17T05:25:54;95771.78;;;2.90;78.53
3428;BME280;1727;42.624;23.406;2023-02-17T05:28:21;95773.56;;;2.88;78.36
3428;BME280;1727;42.624;23.406;2023-02-17T05:30:48;95783.78;;;2.93;78.27
3428;BME280;1727;42.624;23.406;2023-02-17T05:33:15;95776.38;;;4.04;99.72
3428;BME280;1727;42.624;23.406;2023-02-17T05:35:42;95778.06;;;3.86;83.82
3428;BME280;1727;42.624;23.406;2023-02-17T05:38:10;95787.53;;;3.87;80.54
3428;BME280;1727;42.624;23.406;2023-02-17T05:40:37;95785.00;;;3.86;77.99
3428;BME280;1727;42.624;23.406;2023-02-17T05:43:03;95793.84;;;3.82;76.85
3428;BME280;1727;42.624;23.406;2023-02-17T05:45:30;95801.00;;;3.77;77.10
3428;BME280;1727;42.624;23.406;2023-02-17T05:47:57;95801.22;;;3.70;76.70
3428;BME280;1727;42.624;23.406;2023-02-17T05:50:24;95798.63;;;3.70;77.33
3428;BME280;1727;42.624;23.406;2023-02-17T05:52:50;95801.28;;;3.69;78.12
3428;BME280;1727;42.624;23.406;2023-02-17T05:55:19;95798.41;;;3.77;79.43
3428;BME280;1727;42.624;23.406;2023-02-17T05:57:46;95806.69;;;3.85;80.47
3428;BME280;1727;42.624;23.406;2023-02-17T06:00:14;95800.16;;;3.95;82.68
3428;BME280;1727;42.624;23.406;2023-02-17T06:02:41;95802.00;;;3.93;81.34
3428;BME280;1727;42.624;23.406;2023-02-17T06:05:08;95804.94;;;4.04;82.11
3428;BME280;1727;42.624;23.406;2023-02-17T06:07:34;95796.69;;;4.15;84.16
3428;BME280;1727;42.624;23.406;2023-02-17T06:10:01;95794.50;;;4.24;82.13
3428;BME280;1727;42.624;23.406;2023-02-17T06:12:29;95810.78;;;4.28;78.11
3428;BME280;1727;42.624;23.406;2023-02-17T06:14:56;95798.56;;;4.49;76.31
3428;BME280;1727;42.624;23.406;2023-02-17T06:17:23;95804.94;;;4.79;75.96
3428;BME280;1727;42.624;23.406;2023-02-17T06:19:49;95804.53;;;5.06;80.72
3428;BME280;1727;42.624;23.406;2023-02-17T06:22:16;95797.75;;;5.20;79.10
3428;BME280;1727;42.624;23.406;2023-02-17T06:24:43;95796.44;;;5.29;84.58
3428;BME280;1727;42.624;23.406;2023-02-17T06:27:10;95806.00;;;5.80;92.76
3428;BME280;1727;42.624;23.406;2023-02-17T06:29:38;95806.38;;;5.90;81.00
3428;BME280;1727;42.624;23.406;2023-02-17T06:32:05;95807.13;;;6.09;75.86
3428;BME280;1727;42.624;23.406;2023-02-17T06:34:31;95807.66;;;6.32;72.79
3428;BME280;1727;42.624;23.406;2023-02-17T06:36:58;95809.19;;;6.51;73.80
3428;BME280;1727;42.624;23.406;2023-02-17T06:39:25;95811.75;;;6.69;67.53
3428;BME280;1727;42.624;23.406;2023-02-17T06:41:52;95820.31;;;7.02;70.27
3428;BME280;1727;42.624;23.406;2023-02-17T06:44:18;95823.63;;;7.36;67.20
3428;BME280;1727;42.624;23.406;2023-02-17T06:46:46;95825.84;;;7.58;65.46
3428;BME280;1727;42.624;23.406;2023-02-17T06:49:13;95813.88;;;7.84;63.40
3428;BME280;1727;42.624;23.406;2023-02-17T06:51:40;95818.06;;;7.86;62.88
3428;BME280;1727;42.624;23.406;2023-02-17T06:54:07;95819.94;;;7.98;65.31
3428;BME280;1727;42.624;23.406;2023-02-17T06:56:34;95830.00;;;8.04;63.36
3428;BME280;1727;42.624;23.406;2023-02-17T06:59:00;95819.09;;;7.84;62.80
3428;BME280;1727;42.624;23.406;2023-02-17T07:01:27;95830.50;;;7.67;64.59
3428;BME280;1727;42.624;23.406;2023-02-17T07:03:55;95826.66;;;7.88;66.00
3428;BME280;1727;42.624;23.406;2023-02-17T07:06:24;95822.75;;;8.10;65.14
3428;BME280;1727;42.624;23.406;2023-02-17T07:08:51;95827.09;;;8.39;66.48
3428;BME280;1727;42.624;23.406;2023-02-17T07:11:18;95829.69;;;9.36;89.78
3428;BME280;1727;42.624;23.406;2023-02-17T07:13:45;95832.94;;;9.39;63.25
3428;BME280;1727;42.624;23.406;2023-02-17T07:16:13;95833.34;;;9.06;58.02
3428;BME280;1727;42.624;23.406;2023-02-17T07:18:40;95831.09;;;8.59;58.64
3428;BME280;1727;42.624;23.406;2023-02-17T07:21:09;95830.44;;;8.55;58.99
3428;BME280;1727;42.624;23.406;2023-02-17T07:23:36;95827.44;;;8.61;59.85
3428;BME280;1727;42.624;23.406;2023-02-17T07:26:04;95838.31;;;8.41;60.33
3428;BME280;1727;42.624;23.406;2023-02-17T07:28:32;95844.88;;;8.18;61.23
3428;BME280;1727;42.624;23.406;2023-02-17T07:31:04;95829.72;;;7.81;62.77
3428;BME280;1727;42.624;23.406;2023-02-17T07:33:31;95836.56;;;7.97;63.58
3428;BME280;1727;42.624;23.406;2023-02-17T07:35:58;95835.97;;;7.92;63.44
3428;BME280;1727;42.624;23.406;2023-02-17T07:38:26;95845.59;;;7.92;63.53
3428;BME280;1727;42.624;23.406;2023-02-17T07:40:53;95845.22;;;7.98;63.75
3428;BME280;1727;42.624;23.406;2023-02-17T07:43:20;95845.03;;;7.87;63.45
3428;BME280;1727;42.624;23.406;2023-02-17T07:45:46;95850.53;;;7.82;63.74
3428;BME280;1727;42.624;23.406;2023-02-17T07:48:13;95848.63;;;7.70;64.85
3428;BME280;1727;42.624;23.406;2023-02-17T07:50:40;95842.50;;;7.85;64.45
3428;BME280;1727;42.624;23.406;2023-02-17T07:53:06;95840.94;;;7.97;63.97
3428;BME280;1727;42.624;23.406;2023-02-17T07:55:35;95844.88;;;7.74;64.67
3428;BME280;1727;42.624;23.406;2023-02-17T07:58:01;95853.84;;;7.70;64.63
3428;BME280;1727;42.624;23.406;2023-02-17T08:00:28;95845.13;;;7.85;64.98
3428;BME280;1727;42.624;23.406;2023-02-17T08:02:55;95832.47;;;8.22;70.19
3428;BME280;1727;42.624;23.406;2023-02-17T08:05:22;95837.66;;;8.07;64.61
3428;BME280;1727;42.624;23.406;2023-02-17T08:07:48;95847.97;;;8.11;64.39
3428;BME280;1727;42.624;23.406;2023-02-17T08:10:38;95851.34;;;8.13;63.70
3428;BME280;1727;42.624;23.406;2023-02-17T08:13:30;95843.69;;;8.10;64.40
3428;BME280;1727;42.624;23.406;2023-02-17T08:15:57;95845.25;;;8.12;64.39
3428;BME280;1727;42.624;23.406;2023-02-17T08:18:24;95840.13;;;8.25;64.29
3428;BME280;1727;42.624;23.406;2023-02-17T08:20:51;95845.31;;;8.41;63.81
3428;BME280;1727;42.624;23.406;2023-02-17T08:23:18;95837.16;;;8.59;63.29
3428;BME280;1727;42.624;23.406;2023-02-17T08:25:47;95837.72;;;8.50;62.86
3428;BME280;1727;42.624;23.406;2023-02-17T08:28:13;95830.53;;;8.54;63.91
3428;BME280;1727;42.624;23.406;2023-02-17T08:30:41;95840.31;;;8.79;64.32
3428;BME280;1727;42.624;23.406;2023-02-17T08:33:08;95837.31;;;8.99;62.53
3428;BME280;1727;42.624;23.406;2023-02-17T08:35:35;95836.31;;;9.14;62.61
3428;BME280;1727;42.624;23.406;2023-02-17T08:38:02;95826.91;;;9.24;61.92
3428;BME280;1727;42.624;23.406;2023-02-17T08:40:29;95833.78;;;9.40;61.55
3428;BME280;1727;42.624;23.406;2023-02-17T08:42:57;95827.00;;;9.50;55.94
3428;BME280;1727;42.624;23.406;2023-02-17T08:45:23;95825.69;;;9.70;55.48
3428;BME280;1727;42.624;23.406;2023-02-17T08:47:51;95829.63;;;9.89;55.45
3428;BME280;1727;42.624;23.406;2023-02-17T08:50:17;95825.13;;;10.17;54.79
3428;BME280;1727;42.624;23.406;2023-02-17T08:52:45;95818.97;;;10.43;53.38
3428;BME280;1727;42.624;23.406;2023-02-17T08:55:12;95827.72;;;10.68;52.34
3428;BME280;1727;42.624;23.406;2023-02-17T08:57:39;95826.38;;;10.75;51.70
3428;BME280;1727;42.624;23.406;2023-02-17T09:00:09;95824.88;;;10.83;51.82
3428;BME280;1727;42.624;23.406;2023-02-17T09:02:36;95823.88;;;11.10;52.05
3428;BME280;1727;42.624;23.406;2023-02-17T09:05:03;95828.91;;;11.37;53.18
3428;BME280;1727;42.624;23.406;2023-02-17T09:07:31;95824.75;;;11.45;49.88
3428;BME280;1727;42.624;23.406;2023-02-17T09:09:58;95819.88;;;11.52;49.58
3428;BME280;1727;42.624;23.406;2023-02-17T09:12:25;95823.25;;;11.54;49.82
3428;BME280;1727;42.624;23.406;2023-02-17T09:14:52;95822.81;;;11.60;49.64
3428;BME280;1727;42.624;23.406;2023-02-17T09:17:20;95818.78;;;11.67;49.66
3428;BME280;1727;42.624;23.406;2023-02-17T09:19:47;95819.94;;;11.63;49.76
3428;BME280;1727;42.624;23.406;2023-02-17T09:22:14;95815.13;;;11.81;50.04
3428;BME280;1727;42.624;23.406;2023-02-17T09:24:41;95819.31;;;11.84;48.71
3428;BME280;1727;42.624;23.406;2023-02-17T09:27:08;95810.63;;;11.94;49.43
3428;BME280;1727;42.624;23.406;2023-02-17T09:29:36;95808.38;;;12.12;48.49
3428;BME280;1727;42.624;23.406;2023-02-17T09:32:06;95811.06;;;12.23;48.02
3428;BME280;1727;42.624;23.406;2023-02-17T09:34:35;95814.16;;;12.28;47.77
3428;BME280;1727;42.624;23.406;2023-02-17T09:37:01;95809.16;;;12.25;46.80
3428;BME280;1727;42.624;23.406;2023-02-17T09:39:28;95803.41;;;12.43;47.22
3428;BME280;1727;42.624;23.406;2023-02-17T09:41:55;95798.16;;;12.54;47.04
3428;BME280;1727;42.624;23.406;2023-02-17T09:44:24;95800.69;;;12.44;46.82
3428;BME280;1727;42.624;23.406;2023-02-17T09:46:56;95801.84;;;12.18;47.57
3428;BME280;1727;42.624;23.406;2023-02-17T09:49:27;95796.81;;;12.37;47.96
3428;BME280;1727;42.624;23.406;2023-02-17T09:52:02;95792.41;;;12.26;47.45
3428;BME280;1727;42.624;23.406;2023-02-17T09:54:34;95786.19;;;12.27;46.66
3428;BME280;1727;42.624;23.406;2023-02-17T09:57:02;95790.63;;;12.49;47.43
3428;BME280;1727;42.624;23.406;2023-02-17T09:59:37;95777.94;;;12.54;46.43
3428;BME280;1727;42.624;23.406;2023-02-17T10:02:06;95785.09;;;12.75;46.26
3428;BME280;1727;42.624;23.406;2023-02-17T10:04:40;95777.53;;;12.92;46.28
3428;BME280;1727;42.624;23.406;2023-02-17T10:07:15;95780.16;;;12.92;45.80
3428;BME280;1727;42.624;23.406;2023-02-17T10:09:46;95776.81;;;13.01;45.83
3428;BME280;1727;42.624;23.406;2023-02-17T10:12:18;95778.28;;;12.83;45.19
3428;BME280;1727;42.624;23.406;2023-02-17T10:14:51;95768.06;;;12.90;44.84
3428;BME280;1727;42.624;23.406;2023-02-17T10:17:23;95766.66;;;12.86;45.23
3428;BME280;1727;42.624;23.406;2023-02-17T10:19:59;95769.38;;;13.07;45.02
3428;BME280;1727;42.624;23.406;2023-02-17T10:22:31;95759.28;;;13.00;44.24
3428;BME280;1727;42.624;23.406;2023-02-17T10:24:59;95750.59;;;12.89;43.28
3428;BME280;1727;42.624;23.406;2023-02-17T10:27:36;95742.25;;;13.16;38.94
3428;BME280;1727;42.624;23.406;2023-02-17T10:30:18;95736.00;;;13.28;37.31
3428;BME280;1727;42.624;23.406;2023-02-17T10:32:55;95737.47;;;13.32;37.14
3428;BME280;1727;42.624;23.406;2023-02-17T10:35:35;95729.50;;;13.43;36.99
3428;BME280;1727;42.624;23.406;2023-02-17T10:38:16;95726.34;;;13.49;35.61
3428;BME280;1727;42.624;23.406;2023-02-17T10:40:46;95719.59;;;13.56;35.88
3428;BME280;1727;42.624;23.406;2023-02-17T10:43:20;95714.53;;;13.64;36.10
3428;BME280;1727;42.624;23.406;2023-02-17T10:45:48;95721.91;;;13.71;35.58
3428;BME280;1727;42.624;23.406;2023-02-17T10:48:19;95716.66;;;13.71;35.66
3428;BME280;1727;42.624;23.406;2023-02-17T10:50:48;95712.91;;;13.73;35.30
3428;BME280;1727;42.624;23.406;2023-02-17T10:53:19;95707.25;;;13.78;35.53
3428;BME280;1727;42.624;23.406;2023-02-17T10:55:53;95712.25;;;13.81;36.92
3428;BME280;1727;42.624;23.406;2023-02-17T10:58:27;95707.81;;;13.81;35.25
3428;BME280;1727;42.624;23.406;2023-02-17T11:00:56;95706.00;;;13.82;35.55
3428;BME280;1727;42.624;23.406;2023-02-17T11:03:25;95699.97;;;13.91;35.85
3428;BME280;1727;42.624;23.406;2023-02-17T11:05:55;95698.63;;;13.97;34.91
3428;BME280;1727;42.624;23.406;2023-02-17T11:08:31;95697.38;;;14.01;36.36
3428;BME280;1727;42.624;23.406;2023-02-17T11:11:02;95692.94;;;14.01;34.87
3428;BME280;1727;42.624;23.406;2023-02-17T11:13:33;95695.31;;;14.04;34.66
3428;BME280;1727;42.624;23.406;2023-02-17T11:16:01;95693.63;;;14.03;36.85
3428;BME280;1727;42.624;23.406;2023-02-17T11:18:31;95686.00;;;14.00;34.03
3428;BME280;1727;42.624;23.406;2023-02-17T11:21:01;95677.38;;;13.98;35.73
3428;BME280;1727;42.624;23.406;2023-02-17T11:23:30;95677.09;;;14.01;35.69
3428;BME280;1727;42.624;23.406;2023-02-17T11:26:00;95684.75;;;14.04;35.77
3428;BME280;1727;42.624;23.406;2023-02-17T11:28:27;95685.19;;;14.09;35.18
3428;BME280;1727;42.624;23.406;2023-02-17T11:30:56;95676.56;;;14.07;36.71
3428;BME280;1727;42.624;23.406;2023-02-17T11:33:31;95674.06;;;14.06;36.54
3428;BME280;1727;42.624;23.406;2023-02-17T11:36:00;95680.44;;;14.03;35.53
3428;BME280;1727;42.624;23.406;2023-02-17T11:38:31;95670.63;;;14.15;35.91
3428;BME280;1727;42.624;23.406;2023-02-17T11:41:01;95669.97;;;14.22;35.46
3428;BME280;1727;42.624;23.406;2023-02-17T11:43:30;95674.16;;;14.25;36.37
3428;BME280;1727;42.624;23.406;2023-02-17T11:46:07;95662.34;;;14.29;35.41
3428;BME280;1727;42.624;23.406;2023-02-17T11:48:49;95666.66;;;14.30;34.91
3428;BME280;1727;42.624;23.406;2023-02-17T11:51:26;95666.22;;;14.46;54.22
3428;BME280;1727;42.624;23.406;2023-02-17T11:54:02;95657.66;;;14.42;35.67
3428;BME280;1727;42.624;23.406;2023-02-17T11:56:36;95659.38;;;14.43;36.68
3428;BME280;1727;42.624;23.406;2023-02-17T11:59:21;95652.28;;;14.44;36.41
3428;BME280;1727;42.624;23.406;2023-02-17T12:02:06;95652.50;;;14.41;35.81
3428;BME280;1727;42.624;23.406;2023-02-17T12:04:40;95647.22;;;14.41;36.89
3428;BME280;1727;42.624;23.406;2023-02-17T12:07:36;95655.38;;;14.49;36.62
3428;BME280;1727;42.624;23.406;2023-02-17T12:10:10;95635.78;;;14.51;36.23
3428;BME280;1727;42.624;23.406;2023-02-17T12:12:56;95648.72;;;14.54;36.31
3428;BME280;1727;42.624;23.406;2023-02-17T12:15:30;95636.88;;;14.49;37.28
3428;BME280;1727;42.624;23.406;2023-02-17T12:18:09;95631.19;;;14.53;36.80
3428;BME280;1727;42.624;23.406;2023-02-17T12:20:47;95633.41;;;14.48;37.05
3428;BME280;1727;42.624;23.406;2023-02-17T12:23:26;95630.78;;;14.48;37.57
3428;BME280;1727;42.624;23.406;2023-02-17T12:25:56;95624.09;;;14.54;36.41
3428;BME280;1727;42.624;23.406;2023-02-17T12:28:43;95616.75;;;14.57;37.49
3428;BME280;1727;42.624;23.406;2023-02-17T12:31:23;95611.03;;;14.62;37.14
3428;BME280;1727;42.624;23.406;2023-02-17T12:33:58;95610.91;;;14.64;37.36
3428;BME280;1727;42.624;23.406;2023-02-17T12:36:30;95614.94;;;14.58;37.53
3428;BME280;1727;42.624;23.406;2023-02-17T12:39:01;95608.69;;;14.59;37.01
3428;BME280;1727;42.624;23.406;2023-02-17T12:41:33;95601.72;;;14.58;37.98
3428;BME280;1727;42.624;23.406;2023-02-17T12:44:05;95600.75;;;14.59;36.84
3428;BME280;1727;42.624;23.406;2023-02-17T12:46:37;95600.19;;;14.55;37.58
3428;BME280;1727;42.624;23.406;2023-02-17T12:49:10;95595.88;;;14.64;38.05
3428;BME280;1727;42.624;23.406;2023-02-17T12:51:41;95601.88;;;14.66;36.64
3428;BME280;1727;42.624;23.406;2023-02-17T12:54:13;95599.22;;;14.66;36.31
3428;BME280;1727;42.624;23.406;2023-02-17T12:56:51;95596.59;;;14.66;36.47
3428;BME280;1727;42.624;23.406;2023-02-17T12:59:26;95592.00;;;14.68;39.46
3428;BME280;1727;42.624;23.406;2023-02-17T13:01:56;95585.47;;;14.72;37.12
3428;BME280;1727;42.624;23.406;2023-02-17T13:04:26;95578.50;;;14.71;35.77
3428;BME280;1727;42.624;23.406;2023-02-17T13:07:01;95581.84;;;14.73;36.15
3428;BME280;1727;42.624;23.406;2023-02-17T13:09:32;95584.38;;;14.75;36.58
3428;BME280;1727;42.624;23.406;2023-02-17T13:12:14;95590.22;;;14.78;40.90
3428;BME280;1727;42.624;23.406;2023-02-17T13:14:46;95584.78;;;14.80;37.44
3428;BME280;1727;42.624;23.406;2023-02-17T13:17:23;95587.97;;;14.83;36.20
3428;BME280;1727;42.624;23.406;2023-02-17T13:20:03;95588.13;;;14.82;35.43
3428;BME280;1727;42.624;23.406;2023-02-17T13:22:30;95582.84;;;14.82;35.92
3428;BME280;1727;42.624;23.406;2023-02-17T13:24:57;95583.69;;;14.82;35.89
3428;BME280;1727;42.624;23.406;2023-02-17T13:27:31;95581.88;;;14.83;35.90
3428;BME280;1727;42.624;23.406;2023-02-17T13:30:01;95579.63;;;14.88;35.53
3428;BME280;1727;42.624;23.406;2023-02-17T13:32:31;95582.13;;;14.90;35.67
3428;BME280;1727;42.624;23.406;2023-02-17T13:35:00;95581.31;;;14.89;35.50